Time;durP1;ratioP1;P1;durP2;ratioP2;P2;SDS_P1;SDS_P2;PMS_P1;PMS_P2;Temp;Humidity;BMP_temperature;BMP_pressure;BME280_temperature;BME280_humidity;BME280_pressure;Samples;Min_cycle;Max_cycle;Signal;HPM_P1;HPM_P2
2022/05/22 00:00:43;;;;;;;0.73;0.70;;;14.40;99.90;;;;;;5046242;28;20260;-63
2022/05/22 00:03:27;;;;;;;0.77;0.73;;;14.30;99.90;;;;;;5046033;28;20279;-63
2022/05/22 00:06:12;;;;;;;1.63;1.00;;;14.30;99.90;;;;;;5043702;28;20284;-62
2022/05/22 00:08:56;;;;;;;0.63;0.63;;;14.20;99.90;;;;;;5046920;28;20194;-63
2022/05/22 00:11:41;;;;;;;1.13;0.90;;;14.10;99.90;;;;;;5044962;28;20202;-64
2022/05/22 00:14:25;;;;;;;0.80;0.80;;;14.10;99.90;;;;;;5044492;28;20237;-64
2022/05/22 00:17:10;;;;;;;0.77;0.77;;;14.10;99.90;;;;;;5046929;28;20283;-64
2022/05/22 00:19:55;;;;;;;0.80;0.80;;;14.00;99.90;;;;;;5044071;28;20225;-65
2022/05/22 00:22:40;;;;;;;1.63;0.80;;;14.00;99.90;;;;;;5045206;28;20270;-62
2022/05/22 00:25:25;;;;;;;1.20;1.00;;;14.00;99.90;;;;;;5046044;28;20194;-64
2022/05/22 00:28:09;;;;;;;1.73;0.80;;;13.90;99.90;;;;;;5043335;28;20252;-65
2022/05/22 00:30:53;;;;;;;0.70;0.70;;;13.80;99.90;;;;;;5045948;28;20217;-64
2022/05/22 00:33:38;;;;;;;1.37;0.73;;;13.70;99.90;;;;;;5045225;28;20239;-64
2022/05/22 00:36:22;;;;;;;0.97;0.87;;;13.70;99.90;;;;;;5043364;28;20301;-62
2022/05/22 00:39:07;;;;;;;1.93;0.93;;;13.70;99.90;;;;;;5046219;28;20305;-64
2022/05/22 00:41:55;;;;;;;2.00;0.70;;;13.70;99.90;;;;;;5044716;28;20198;-64
2022/05/22 00:44:39;;;;;;;0.60;0.60;;;13.60;99.90;;;;;;5044186;28;20227;-64
2022/05/22 00:47:23;;;;;;;0.90;0.90;;;13.60;99.90;;;;;;5046209;28;20193;-64
2022/05/22 00:50:08;;;;;;;1.20;0.70;;;13.50;99.90;;;;;;5043829;28;20201;-64
2022/05/22 00:52:57;;;;;;;0.57;0.57;;;13.50;99.90;;;;;;5045044;28;20229;-63
2022/05/22 00:55:41;;;;;;;0.70;0.70;;;13.50;99.90;;;;;;5046184;28;20217;-63
2022/05/22 00:58:29;;;;;;;0.93;0.80;;;13.40;99.90;;;;;;5042951;28;20712;-63
2022/05/22 01:01:14;;;;;;;1.53;0.80;;;13.40;99.90;;;;;;5045538;28;20262;-61
2022/05/22 01:03:59;;;;;;;2.30;0.70;;;13.30;99.90;;;;;;5045060;28;20198;-64
2022/05/22 01:06:43;;;;;;;7.57;3.23;;;13.30;99.90;;;;;;5042851;28;20278;-61
2022/05/22 01:09:27;;;;;;;2.60;1.80;;;13.30;99.90;;;;;;5046188;28;20298;-61
2022/05/22 01:12:22;;;;;;;0.70;0.70;;;13.20;99.90;;;;;;5043492;28;20352;-64
2022/05/22 01:15:07;;;;;;;0.77;0.77;;;13.30;99.90;;;;;;5043131;28;20214;-64
2022/05/22 01:17:53;;;;;;;0.80;0.80;;;13.30;99.90;;;;;;5045757;28;20195;-64
2022/05/22 01:20:49;;;;;;;3.50;0.97;;;13.20;99.90;;;;;;5044071;28;20206;-64
2022/05/22 01:23:34;;;;;;;3.33;1.00;;;13.10;99.90;;;;;;5043980;28;20197;-62
2022/05/22 01:26:52;;;;;;;3.40;1.10;;;13.00;99.90;;;;;;5046453;28;20201;-61
2022/05/22 01:29:37;;;;;;;2.67;0.77;;;12.90;99.90;;;;;;5044186;28;20227;-63
2022/05/22 01:32:21;;;;;;;0.57;0.57;;;12.80;99.90;;;;;;5043063;28;20245;-61
2022/05/22 01:35:07;;;;;;;2.37;0.60;;;12.80;99.90;;;;;;5046095;28;20222;-63
2022/05/22 01:37:52;;;;;;;1.60;0.63;;;12.80;99.90;;;;;;5042831;28;20242;-63
2022/05/22 01:40:37;;;;;;;0.70;0.67;;;12.70;99.90;;;;;;5044160;28;20202;-61
2022/05/22 01:43:21;;;;;;;2.80;0.77;;;12.60;99.90;;;;;;5045508;28;20193;-63
2022/05/22 01:46:05;;;;;;;1.80;0.73;;;12.60;99.90;;;;;;5042793;28;20197;-63
2022/05/22 01:48:49;;;;;;;0.80;0.80;;;12.50;99.90;;;;;;5044369;28;20588;-62
2022/05/22 01:51:36;;;;;;;0.73;0.73;;;12.50;99.90;;;;;;5044507;28;20194;-63
2022/05/22 01:54:21;;;;;;;1.60;0.57;;;12.40;99.90;;;;;;5041778;28;20201;-64
2022/05/22 01:57:05;;;;;;;0.70;0.70;;;12.50;99.90;;;;;;5044873;28;20601;-63
2022/05/22 01:59:50;;;;;;;2.83;0.83;;;12.50;99.90;;;;;;5043838;28;20218;-61
2022/05/22 02:02:34;;;;;;;0.53;0.53;;;12.50;99.90;;;;;;5043114;28;20209;-63
2022/05/22 02:05:18;;;;;;;0.50;0.50;;;12.40;99.90;;;;;;5045772;28;20300;-62
2022/05/22 02:08:19;;;;;;;0.60;0.60;;;12.40;99.90;;;;;;5043389;28;20261;-64
2022/05/22 02:11:06;;;;;;;1.60;0.70;;;12.40;99.90;;;;;;5043224;28;20198;-64
2022/05/22 02:13:51;;;;;;;1.77;0.63;;;12.40;99.90;;;;;;5045617;28;20201;-62
2022/05/22 02:16:36;;;;;;;0.80;0.60;;;12.40;99.90;;;;;;5043400;28;20210;-63
2022/05/22 02:19:22;;;;;;;0.40;0.40;;;12.30;99.90;;;;;;5043707;28;20233;-63
2022/05/22 02:22:06;;;;;;;0.93;0.80;;;12.20;99.90;;;;;;5044975;28;20198;-62
2022/05/22 02:24:53;;;;;;;0.97;0.90;;;12.20;99.90;;;;;;5045190;28;20210;-63
2022/05/22 02:27:37;;;;;;;1.03;0.90;;;12.20;99.90;;;;;;5047898;28;20292;-61
2022/05/22 02:30:27;;;;;;;0.70;0.67;;;12.20;99.90;;;;;;5047877;28;20202;-63
2022/05/22 02:33:12;;;;;;;1.10;0.80;;;12.10;99.90;;;;;;5045248;28;20189;-63
2022/05/22 02:35:56;;;;;;;0.93;0.80;;;12.00;99.90;;;;;;5048110;28;20241;-61
2022/05/22 02:38:44;;;;;;;0.70;0.70;;;12.10;99.90;;;;;;5047343;28;20276;-62
2022/05/22 02:41:31;;;;;;;3.40;0.87;;;12.10;99.90;;;;;;5046234;28;20198;-63
2022/05/22 02:44:16;;;;;;;0.93;0.93;;;12.00;99.90;;;;;;5048529;28;20287;-61
2022/05/22 02:47:00;;;;;;;0.50;0.50;;;11.90;99.90;;;;;;5046116;28;20294;-63
2022/05/22 02:49:44;;;;;;;3.23;0.87;;;11.90;99.90;;;;;;5046133;28;20221;-61
2022/05/22 02:52:28;;;;;;;0.57;0.57;;;11.90;99.90;;;;;;5048542;28;20253;-62
2022/05/22 02:55:12;;;;;;;0.90;0.90;;;11.90;99.90;;;;;;5045551;28;20202;-63
2022/05/22 02:58:02;;;;;;;0.57;0.57;;;11.80;99.90;;;;;;5047669;28;20201;-61
2022/05/22 03:00:47;;;;;;;0.70;0.70;;;11.90;99.90;;;;;;5048336;28;20207;-63
2022/05/22 03:03:32;;;;;;;0.77;0.77;;;11.90;99.90;;;;;;5045355;28;20233;-64
2022/05/22 03:09:19;;;;;;;4.33;0.80;;;11.80;99.90;;;;;;5048564;28;20252;-63
2022/05/22 03:12:12;;;;;;;7.60;0.90;;;11.70;99.90;;;;;;5044586;28;20206;-63
2022/05/22 03:14:58;;;;;;;0.60;0.60;;;11.70;99.90;;;;;;5013267;28;20224;-62
2022/05/22 03:17:42;;;;;;;0.70;0.70;;;11.60;99.90;;;;;;5027011;28;20234;-62
2022/05/22 03:20:28;;;;;;;1.77;0.50;;;11.60;99.90;;;;;;5011560;28;20281;-63
2022/05/22 03:23:13;;;;;;;1.23;1.10;;;11.60;99.90;;;;;;5014259;28;20327;-60
2022/05/22 03:25:57;;;;;;;1.37;0.77;;;11.60;99.90;;;;;;5025786;28;20221;-64
2022/05/22 03:28:41;;;;;;;0.73;0.73;;;11.50;99.90;;;;;;5011902;28;20198;-60
2022/05/22 03:31:25;;;;;;;0.80;0.80;;;11.50;99.90;;;;;;5014276;28;20233;-63
2022/05/22 03:34:10;;;;;;;0.97;0.97;;;11.40;99.90;;;;;;5010473;28;20191;-64
2022/05/22 03:36:54;;;;;;;0.63;0.60;;;11.50;99.90;;;;;;5012825;28;20207;-63
2022/05/22 03:39:38;;;;;;;1.10;1.00;;;11.50;99.90;;;;;;5023671;28;20230;-63
2022/05/22 03:42:27;;;;;;;0.93;0.90;;;11.50;99.90;;;;;;5020383;28;20198;-64
2022/05/22 03:45:12;;;;;;;1.20;0.90;;;11.60;99.90;;;;;;5023740;28;20207;-60
2022/05/22 03:47:56;;;;;;;1.60;0.70;;;11.60;99.90;;;;;;5023099;28;20198;-62
2022/05/22 03:50:40;;;;;;;0.87;0.83;;;11.60;99.90;;;;;;5018009;28;20256;-62
2022/05/22 03:53:25;;;;;;;1.13;1.03;;;11.60;99.90;;;;;;5025921;28;20194;-59
2022/05/22 03:56:14;;;;;;;2.80;1.10;;;11.60;99.90;;;;;;5021402;28;20195;-60
2022/05/22 03:58:59;;;;;;;1.00;1.00;;;11.50;99.90;;;;;;5022795;28;20230;-63
2022/05/22 04:01:43;;;;;;;0.90;0.90;;;11.40;99.90;;;;;;5028040;28;20202;-61
2022/05/22 04:04:27;;;;;;;0.70;0.70;;;11.40;99.90;;;;;;5029871;28;20241;-63
2022/05/22 04:07:12;;;;;;;0.67;0.67;;;11.50;99.90;;;;;;5031975;28;20248;-61
2022/05/22 04:09:56;;;;;;;1.13;0.80;;;11.40;99.90;;;;;;5033995;28;20206;-63
2022/05/22 04:12:44;;;;;;;0.77;0.77;;;11.50;99.90;;;;;;5029937;28;20276;-63
2022/05/22 04:15:29;;;;;;;0.70;0.70;;;11.60;99.90;;;;;;5032527;28;20284;-60
2022/05/22 04:18:14;;;;;;;1.03;0.87;;;11.70;99.90;;;;;;5032751;28;20246;-60
2022/05/22 04:20:59;;;;;;;1.00;1.00;;;11.70;99.90;;;;;;5030405;28;20198;-61
2022/05/22 04:26:46;;;;;;;0.80;0.80;;;11.70;99.90;;;;;;5047868;28;20214;-61
2022/05/22 04:29:32;;;;;;;1.00;0.80;;;11.70;99.90;;;;;;5030077;28;20212;-59
2022/05/22 04:32:17;;;;;;;0.77;0.77;;;11.80;99.90;;;;;;5033134;28;20195;-60
2022/05/22 04:35:01;;;;;;;1.23;1.10;;;11.90;99.90;;;;;;5030880;28;20202;-59
2022/05/22 04:37:46;;;;;;;1.13;1.00;;;11.90;99.90;;;;;;5030891;28;20221;-60
2022/05/22 04:40:30;;;;;;;2.77;0.93;;;11.90;99.90;;;;;;5033532;28;20206;-61
2022/05/22 04:43:15;;;;;;;0.93;0.93;;;11.90;99.90;;;;;;5029970;28;20221;-60
2022/05/22 04:45:59;;;;;;;1.03;0.97;;;11.80;99.90;;;;;;5031096;28;20198;-59
2022/05/22 04:48:43;;;;;;;1.03;0.83;;;11.80;99.90;;;;;;5032514;28;20275;-60
2022/05/22 04:51:28;;;;;;;0.83;0.83;;;11.60;99.90;;;;;;5029120;28;20237;-59
2022/05/22 04:54:12;;;;;;;1.93;1.00;;;11.60;99.90;;;;;;5032183;28;20285;-61
2022/05/22 04:56:57;;;;;;;0.70;0.70;;;11.60;99.90;;;;;;5031660;28;20216;-60
2022/05/22 04:59:41;;;;;;;1.13;1.13;;;11.60;99.90;;;;;;5029833;28;20230;-61
2022/05/22 05:06:07;;;;;;;2.77;0.73;;;11.90;99.90;;;;;;5047671;28;20294;-61
2022/05/22 05:08:51;;;;;;;1.77;0.77;;;12.00;99.90;;;;;;5029431;28;20245;-61
2022/05/22 05:11:36;;;;;;;1.07;1.07;;;12.20;99.90;;;;;;5031927;28;20190;-59
2022/05/22 05:14:21;;;;;;;1.53;1.10;;;12.40;99.90;;;;;;5031382;28;20190;-61
2022/05/22 05:17:15;;;;;;;1.50;0.80;;;12.40;99.90;;;;;;5029793;28;20209;-62
2022/05/22 05:20:00;;;;;;;0.83;0.83;;;12.60;99.90;;;;;;5032052;28;20229;-59
2022/05/22 05:22:45;;;;;;;2.13;1.10;;;12.70;99.90;;;;;;5030941;28;20244;-61
2022/05/22 05:25:29;;;;;;;1.27;0.90;;;12.70;99.90;;;;;;5029920;28;20201;-59
2022/05/22 05:28:13;;;;;;;1.10;1.10;;;12.70;99.90;;;;;;5032459;28;20210;-60
2022/05/22 05:30:58;;;;;;;1.03;1.00;;;12.80;99.90;;;;;;5030159;28;20186;-60
2022/05/22 05:33:42;;;;;;;1.20;1.10;;;12.80;99.90;;;;;;5030574;28;20206;-60
2022/05/22 05:36:26;;;;;;;1.43;1.13;;;12.80;99.90;;;;;;5032013;28;20301;-61
2022/05/22 05:39:11;;;;;;;0.70;0.70;;;13.00;99.90;;;;;;5028922;28;20217;-62
2022/05/22 05:41:55;;;;;;;1.13;1.10;;;13.00;99.90;;;;;;5031701;28;20391;-60
2022/05/22 05:44:40;;;;;;;1.00;1.00;;;13.30;99.90;;;;;;5031573;28;20198;-61
2022/05/22 05:47:25;;;;;;;2.63;1.27;;;13.50;99.90;;;;;;5028886;28;20221;-60
2022/05/22 05:50:10;;;;;;;2.53;1.17;;;13.50;99.90;;;;;;5031717;28;20286;-60
2022/05/22 05:52:57;;;;;;;3.13;1.10;;;13.60;99.90;;;;;;5031037;28;20324;-61
2022/05/22 05:55:42;;;;;;;1.43;1.27;;;13.70;99.90;;;;;;5029254;28;20237;-61
2022/05/22 05:58:26;;;;;;;1.37;1.00;;;13.70;99.90;;;;;;5034862;28;20237;-61
2022/05/22 06:01:12;;;;;;;1.00;1.00;;;13.50;99.90;;;;;;5034003;28;20194;-61
2022/05/22 06:03:56;;;;;;;1.50;1.00;;;13.70;99.90;;;;;;5034090;28;20201;-63
2022/05/22 06:06:41;;;;;;;0.93;0.93;;;13.60;99.90;;;;;;5035745;28;20229;-63
2022/05/22 06:09:25;;;;;;;2.53;0.93;;;13.60;99.90;;;;;;5033151;28;20241;-63
2022/05/22 06:12:10;;;;;;;1.20;1.00;;;13.70;99.90;;;;;;5035385;28;20201;-62
2022/05/22 06:14:54;;;;;;;0.93;0.90;;;13.70;99.90;;;;;;5035155;28;20605;-62
2022/05/22 06:17:46;;;;;;;1.23;1.20;;;13.80;99.90;;;;;;5032942;28;20233;-61
2022/05/22 06:20:30;;;;;;;1.10;1.10;;;14.10;99.90;;;;;;5035415;28;20286;-62
2022/05/22 06:23:15;;;;;;;0.87;0.87;;;14.20;99.90;;;;;;5034077;28;20274;-64
2022/05/22 06:29:42;;;;;;;1.57;1.27;;;14.30;99.90;;;;;;5049241;28;20182;-63
2022/05/22 06:32:26;;;;;;;0.97;0.77;;;14.30;99.90;;;;;;5035170;28;20181;-61
2022/05/22 06:35:12;;;;;;;0.70;0.70;;;14.50;99.90;;;;;;5032679;28;20210;-64
2022/05/22 06:37:56;;;;;;;1.73;1.03;;;14.60;99.90;;;;;;5034412;28;20320;-64
2022/05/22 06:40:40;;;;;;;0.63;0.63;;;14.70;99.90;;;;;;5034522;28;20284;-63
2022/05/22 06:43:25;;;;;;;1.03;0.87;;;15.10;99.90;;;;;;5032261;28;20194;-63
2022/05/22 06:46:09;;;;;;;2.90;1.10;;;15.50;99.90;;;;;;5035430;28;20223;-60
2022/05/22 06:48:53;;;;;;;1.23;0.90;;;15.80;99.90;;;;;;5033171;28;20254;-61
2022/05/22 06:51:37;;;;;;;1.17;0.80;;;16.10;99.90;;;;;;5032887;28;20194;-62
2022/05/22 06:54:21;;;;;;;0.90;0.90;;;16.40;99.90;;;;;;5034999;28;20198;-62
2022/05/22 06:57:05;;;;;;;0.90;0.90;;;16.50;99.90;;;;;;5032696;28;20249;-62
2022/05/22 06:59:53;;;;;;;2.00;0.87;;;16.60;99.90;;;;;;5033749;28;20257;-63
2022/05/22 07:02:39;;;;;;;0.50;0.50;;;16.90;99.90;;;;;;5034633;28;20201;-65
2022/05/22 07:05:23;;;;;;;0.73;0.70;;;17.20;99.90;;;;;;5031732;28;20240;-63
2022/05/22 07:08:08;;;;;;;1.00;1.00;;;17.50;99.90;;;;;;5034402;28;20196;-63
2022/05/22 07:13:57;;;;;;;2.63;0.90;;;18.40;99.90;;;;;;5046676;28;20202;-61
2022/05/22 07:16:41;;;;;;;34.57;22.00;;;18.30;99.90;;;;;;5033998;28;20195;-60
2022/05/22 07:19:26;;;;;;;1.27;1.20;;;18.60;99.90;;;;;;5033162;28;20242;-61
2022/05/22 07:22:10;;;;;;;1.33;1.23;;;18.30;99.90;;;;;;5031911;28;20193;-62
2022/05/22 07:24:54;;;;;;;2.50;1.13;;;18.00;99.90;;;;;;5034793;28;20289;-62
2022/05/22 07:27:38;;;;;;;2.00;1.57;;;18.30;99.90;;;;;;5032601;28;20206;-61
2022/05/22 07:30:22;;;;;;;3.60;0.82;;;18.80;99.90;;;;;;5032564;28;20194;-60
2022/05/22 07:33:06;;;;;;;0.83;0.63;;;19.00;99.90;;;;;;5034493;28;20301;-62
2022/05/22 07:35:58;;;;;;;1.75;0.50;;;19.10;99.60;;;;;;5031817;28;20253;-62
2022/05/22 07:38:44;;;;;;;0.60;0.60;;;19.30;98.70;;;;;;5032687;28;20233;-62
2022/05/22 07:41:28;;;;;;;1.00;0.60;;;19.50;97.40;;;;;;5034248;28;20245;-62
2022/05/22 07:44:12;;;;;;;0.68;0.55;;;19.40;97.50;;;;;;5031514;28;20201;-64
2022/05/22 07:46:57;;;;;;;0.40;0.40;;;19.10;97.80;;;;;;5033980;28;20380;-61
2022/05/22 07:52:45;;;;;;;1.40;0.40;;;19.00;97.10;;;;;;5046091;28;20204;-63
2022/05/22 07:55:29;;;;;;;0.87;0.40;;;18.90;96.60;;;;;;5033331;28;20229;-62
2022/05/22 07:58:14;;;;;;;1.30;0.50;;;18.80;95.90;;;;;;5032356;28;20239;-64
2022/05/22 08:00:58;;;;;;;2.10;0.30;;;19.20;95.50;;;;;;5031721;28;20186;-61
2022/05/22 08:03:43;;;;;;;0.60;0.60;;;20.10;94.70;;;;;;5033702;28;20202;-60
2022/05/22 08:06:27;;;;;;;0.57;0.50;;;21.20;92.30;;;;;;5031055;28;20322;-63
2022/05/22 08:09:11;;;;;;;1.60;0.45;;;21.30;92.80;;;;;;5031362;28;20277;-60
2022/05/22 08:11:55;;;;;;;2.03;0.40;;;21.80;91.10;;;;;;5033520;28;20198;-63
2022/05/22 08:14:40;;;;;;;0.32;0.30;;;21.90;89.40;;;;;;5030286;28;20257;-63
2022/05/22 08:17:24;;;;;;;1.52;0.30;;;22.10;88.10;;;;;;5031784;28;20190;-61
2022/05/22 08:20:12;;;;;;;2.10;0.50;;;22.70;87.60;;;;;;5032346;28;20264;-63
2022/05/22 08:22:59;;;;;;;6.88;4.22;;;23.30;85.20;;;;;;5030454;28;20317;-60
2022/05/22 08:25:43;;;;;;;13.95;8.82;;;22.80;83.30;;;;;;5032852;28;20278;-62
2022/05/22 08:28:28;;;;;;;1.48;0.50;;;22.90;84.70;;;;;;5031754;28;20247;-63
2022/05/22 08:31:14;;;;;;;0.73;0.73;;;23.40;81.80;;;;;;5030512;28;20202;-63
2022/05/22 08:33:58;;;;;;;0.40;0.40;;;23.20;81.00;;;;;;5033877;28;20194;-62
2022/05/22 08:36:42;;;;;;;0.88;0.50;;;23.70;80.00;;;;;;5030539;28;20305;-64
2022/05/22 08:39:27;;;;;;;1.02;0.50;;;23.70;78.20;;;;;;5031047;28;20240;-61
2022/05/22 08:42:19;;;;;;;0.63;0.50;;;23.10;81.30;;;;;;5033160;28;20308;-63
2022/05/22 08:45:11;;;;;;;1.35;0.60;;;23.10;80.50;;;;;;5030117;28;20197;-63
2022/05/22 08:48:06;;;;;;;1.35;0.50;;;23.10;81.40;;;;;;5031796;28;20190;-64
2022/05/22 08:50:55;;;;;;;0.43;0.40;;;24.00;79.20;;;;;;5032844;28;20190;-63
2022/05/22 08:53:50;;;;;;;2.95;0.32;;;23.90;79.10;;;;;;5030572;28;20202;-64
2022/05/22 08:59:41;;;;;;;2.08;0.28;;;22.40;79.30;;;;;;5048353;28;20293;-65
2022/05/22 09:02:43;;;;;;;2.20;1.60;;;22.70;80.00;;;;;;5029194;28;20270;-66
2022/05/22 09:05:30;;;;;;;0.30;0.30;;;24.00;77.80;;;;;;5018099;28;20353;-65
2022/05/22 09:08:26;;;;;;;0.20;0.20;;;24.10;76.00;;;;;;5019582;28;20194;-64
2022/05/22 09:11:26;;;;;;;1.13;0.40;;;23.00;76.80;;;;;;5028574;28;20244;-66
2022/05/22 09:14:42;;;;;;;0.30;0.30;;;22.90;78.50;;;;;;5026072;28;20272;-62
2022/05/22 09:17:43;;;;;;;2.10;0.35;;;24.20;75.40;;;;;;5037663;28;20245;-63
2022/05/22 09:20:42;;;;;;;0.95;0.22;;;25.50;73.40;;;;;;5035106;28;20229;-64
2022/05/22 09:23:56;;;;;;;1.13;0.73;;;26.40;71.90;;;;;;5035648;28;20241;-64
2022/05/22 09:26:51;;;;;;;0.25;0.25;;;27.00;68.70;;;;;;5035031;28;20194;-64
2022/05/22 09:29:54;;;;;;;0.32;0.22;;;26.70;68.50;;;;;;5033921;28;20190;-64
2022/05/22 09:32:47;;;;;;;0.88;0.38;;;25.60;71.00;;;;;;5032525;28;20190;-65
2022/05/22 09:35:56;;;;;;;0.80;0.80;;;26.30;69.70;;;;;;5036919;28;20288;-64
2022/05/22 09:38:46;;;;;;;9.57;7.55;;;26.70;69.20;;;;;;5037234;28;20209;-64
2022/05/22 09:41:58;;;;;;;0.55;0.55;;;26.10;69.10;;;;;;5031759;28;20186;-65
2022/05/22 09:45:32;;;;;;;0.90;0.63;;;25.30;71.30;;;;;;5034147;28;20242;-61
2022/05/22 09:48:50;;;;;;;0.50;0.50;;;24.80;72.30;;;;;;5011638;28;20198;-60
2022/05/22 09:51:43;;;;;;;2.70;0.32;;;24.40;72.90;;;;;;5034591;28;20206;-63
2022/05/22 09:54:40;;;;;;;0.55;0.50;;;26.50;68.10;;;;;;5024229;28;20249;-66
2022/05/22 09:57:48;;;;;;;0.50;0.50;;;27.70;66.90;;;;;;5026771;28;20229;-64
2022/05/22 10:00:38;;;;;;;0.50;0.50;;;27.20;65.60;;;;;;5027001;28;20293;-63
2022/05/22 10:03:49;;;;;;;2.63;1.17;;;26.00;67.20;;;;;;5030131;28;20199;-64
2022/05/22 10:07:06;;;;;;;1.17;0.50;;;27.30;65.80;;;;;;4998081;28;20238;-64
2022/05/22 10:10:10;;;;;;;0.40;0.40;;;27.80;63.70;;;;;;5019133;28;20237;-63
2022/05/22 10:13:28;;;;;;;21.98;16.83;;;29.20;62.70;;;;;;5031955;28;20396;-64
2022/05/22 10:16:37;;;;;;;0.75;0.35;;;30.50;59.90;;;;;;5029866;28;20265;-64
2022/05/22 10:19:39;;;;;;;0.20;0.20;;;29.80;59.80;;;;;;5021003;28;20270;-63
2022/05/22 10:22:31;;;;;;;0.50;0.50;;;26.70;63.10;;;;;;5031161;28;20202;-64
2022/05/22 10:25:18;;;;;;;0.77;0.45;;;26.30;65.30;;;;;;5030726;28;20274;-62
2022/05/22 10:28:12;;;;;;;0.30;0.30;;;26.30;64.40;;;;;;5012394;28;20202;-62
2022/05/22 10:31:09;;;;;;;5.20;3.25;;;27.20;64.40;;;;;;5020740;28;20202;-63
2022/05/22 10:34:14;;;;;;;12.60;9.23;;;28.80;61.30;;;;;;5028772;28;20214;-64
2022/05/22 10:37:03;;;;;;;1.90;1.80;;;29.90;59.40;;;;;;5017739;28;20233;-64
2022/05/22 10:39:47;;;;;;;0.90;0.73;;;28.80;59.70;;;;;;5042621;28;20198;-62
2022/05/22 10:42:45;;;;;;;1.88;0.30;;;28.60;60.30;;;;;;5018546;28;20221;-65
2022/05/22 10:45:38;;;;;;;1.23;0.52;;;29.40;59.10;;;;;;5016425;28;20199;-61
2022/05/22 10:48:27;;;;;;;3.55;2.00;;;30.30;58.00;;;;;;5034079;28;20204;-63
2022/05/22 10:51:20;;;;;;;1.10;0.50;;;29.90;57.40;;;;;;5033670;28;20253;-62
2022/05/22 10:54:04;;;;;;;0.45;0.43;;;27.90;60.00;;;;;;5027819;28;20199;-65
2022/05/22 10:56:49;;;;;;;0.38;0.32;;;25.90;63.00;;;;;;5023930;28;20193;-61
2022/05/22 10:59:33;;;;;;;1.10;1.00;;;26.50;62.80;;;;;;5019136;28;20187;-63
